sensor_id;sensor_type;location;lat;lon;timestamp;temperature;humidity
10175;DHT22;18221;38.704;0.152;2024-03-07T00:01:23;12.70;99.90
10175;DHT22;18221;38.704;0.152;2024-03-07T00:03:52;12.70;99.90
10175;DHT22;18221;38.704;0.152;2024-03-07T00:06:20;12.60;99.90
10175;DHT22;18221;38.704;0.152;2024-03-07T00:08:49;12.60;99.90
10175;DHT22;18221;38.704;0.152;2024-03-07T00:11:17;12.60;99.90
10175;DHT22;18221;38.704;0.152;2024-03-07T00:13:45;12.60;99.90
10175;DHT22;18221;38.704;0.152;2024-03-07T00:16:13;12.50;99.90
10175;DHT22;18221;38.704;0.152;2024-03-07T00:18:41;12.50;99.90
10175;DHT22;18221;38.704;0.152;2024-03-07T00:21:08;12.50;99.90
10175;DHT22;18221;38.704;0.152;2024-03-07T00:23:36;12.50;99.90
10175;DHT22;18221;38.704;0.152;2024-03-07T00:26:06;12.50;99.90
10175;DHT22;18221;38.704;0.152;2024-03-07T00:28:33;12.40;99.90
10175;DHT22;18221;38.704;0.152;2024-03-07T00:31:05;12.30;99.90
10175;DHT22;18221;38.704;0.152;2024-03-07T00:33:34;12.30;99.90
10175;DHT22;18221;38.704;0.152;2024-03-07T00:36:03;12.20;99.90
10175;DHT22;18221;38.704;0.152;2024-03-07T00:38:32;12.20;99.90
10175;DHT22;18221;38.704;0.152;2024-03-07T00:41:00;11.30;99.90
10175;DHT22;18221;38.704;0.152;2024-03-07T00:43:29;12.10;99.90
10175;DHT22;18221;38.704;0.152;2024-03-07T00:45:57;12.10;99.90
10175;DHT22;18221;38.704;0.152;2024-03-07T00:48:25;12.10;99.90
10175;DHT22;18221;38.704;0.152;2024-03-07T01:01:19;11.90;99.90
10175;DHT22;18221;38.704;0.152;2024-03-07T01:03:46;10.20;99.90
10175;DHT22;18221;38.704;0.152;2024-03-07T01:06:14;11.90;99.90
10175;DHT22;18221;38.704;0.152;2024-03-07T01:08:42;11.90;99.90
10175;DHT22;18221;38.704;0.152;2024-03-07T01:11:10;11.80;99.90
10175;DHT22;18221;38.704;0.152;2024-03-07T01:13:38;11.90;99.90
10175;DHT22;18221;38.704;0.152;2024-03-07T01:16:06;11.80;99.90
10175;DHT22;18221;38.704;0.152;2024-03-07T01:18:37;11.80;99.90
10175;DHT22;18221;38.704;0.152;2024-03-07T01:26:10;11.80;99.90
10175;DHT22;18221;38.704;0.152;2024-03-07T01:28:38;11.70;99.90
10175;DHT22;18221;38.704;0.152;2024-03-07T01:31:05;11.70;99.90
10175;DHT22;18221;38.704;0.152;2024-03-07T01:33:32;11.70;99.90
10175;DHT22;18221;38.704;0.152;2024-03-07T01:35:59;12.50;99.90
10175;DHT22;18221;38.704;0.152;2024-03-07T01:38:27;11.70;99.90
10175;DHT22;18221;38.704;0.152;2024-03-07T01:40:54;11.70;99.90
10175;DHT22;18221;38.704;0.152;2024-03-07T01:43:22;11.70;99.90
10175;DHT22;18221;38.704;0.152;2024-03-07T01:48:42;11.50;99.90
10175;DHT22;18221;38.704;0.152;2024-03-07T01:51:10;11.70;99.90
10175;DHT22;18221;38.704;0.152;2024-03-07T01:53:37;11.80;99.90
10175;DHT22;18221;38.704;0.152;2024-03-07T01:56:05;11.80;99.90
10175;DHT22;18221;38.704;0.152;2024-03-07T01:58:33;11.80;99.90
10175;DHT22;18221;38.704;0.152;2024-03-07T02:01:03;11.80;99.90
10175;DHT22;18221;38.704;0.152;2024-03-07T02:03:30;11.80;99.90
10175;DHT22;18221;38.704;0.152;2024-03-07T02:09:08;11.80;99.90
10175;DHT22;18221;38.704;0.152;2024-03-07T02:11:36;11.70;99.90
10175;DHT22;18221;38.704;0.152;2024-03-07T02:14:03;11.90;99.90
10175;DHT22;18221;38.704;0.152;2024-03-07T02:16:31;12.00;99.90
10175;DHT22;18221;38.704;0.152;2024-03-07T02:18:59;11.90;99.90
10175;DHT22;18221;38.704;0.152;2024-03-07T02:21:28;12.00;99.90
10175;DHT22;18221;38.704;0.152;2024-03-07T02:23:56;11.90;99.90
10175;DHT22;18221;38.704;0.152;2024-03-07T02:26:24;12.00;99.90
10175;DHT22;18221;38.704;0.152;2024-03-07T02:28:53;12.00;99.90
10175;DHT22;18221;38.704;0.152;2024-03-07T02:31:20;12.00;99.90
10175;DHT22;18221;38.704;0.152;2024-03-07T02:34:00;12.00;99.90
10175;DHT22;18221;38.704;0.152;2024-03-07T02:36:30;12.00;99.90
10175;DHT22;18221;38.704;0.152;2024-03-07T02:38:58;12.00;99.90
10175;DHT22;18221;38.704;0.152;2024-03-07T02:41:26;12.00;99.90
10175;DHT22;18221;38.704;0.152;2024-03-07T02:43:54;12.00;99.90
10175;DHT22;18221;38.704;0.152;2024-03-07T02:46:22;12.00;99.90
10175;DHT22;18221;38.704;0.152;2024-03-07T02:48:50;12.00;99.90
10175;DHT22;18221;38.704;0.152;2024-03-07T02:51:17;12.00;99.90
10175;DHT22;18221;38.704;0.152;2024-03-07T02:53:47;12.00;99.90
10175;DHT22;18221;38.704;0.152;2024-03-07T02:56:15;12.00;99.90
10175;DHT22;18221;38.704;0.152;2024-03-07T02:58:43;12.00;99.90
10175;DHT22;18221;38.704;0.152;2024-03-07T03:01:11;11.90;99.90
10175;DHT22;18221;38.704;0.152;2024-03-07T03:03:39;11.90;99.90
10175;DHT22;18221;38.704;0.152;2024-03-07T03:06:08;11.90;99.90
10175;DHT22;18221;38.704;0.152;2024-03-07T03:08:37;11.90;99.90
10175;DHT22;18221;38.704;0.152;2024-03-07T03:11:06;11.90;99.90
10175;DHT22;18221;38.704;0.152;2024-03-07T03:13:37;11.80;99.90
10175;DHT22;18221;38.704;0.152;2024-03-07T03:16:05;11.80;99.90
10175;DHT22;18221;38.704;0.152;2024-03-07T03:18:34;11.80;99.90
10175;DHT22;18221;38.704;0.152;2024-03-07T03:21:02;11.70;99.90
10175;DHT22;18221;38.704;0.152;2024-03-07T03:23:30;11.70;99.90
10175;DHT22;18221;38.704;0.152;2024-03-07T03:25:58;11.60;99.90
10175;DHT22;18221;38.704;0.152;2024-03-07T03:28:27;11.60;99.90
10175;DHT22;18221;38.704;0.152;2024-03-07T03:30:55;11.60;99.90
10175;DHT22;18221;38.704;0.152;2024-03-07T03:33:23;11.60;99.90
10175;DHT22;18221;38.704;0.152;2024-03-07T03:35:51;11.70;99.90
10175;DHT22;18221;38.704;0.152;2024-03-07T03:38:21;11.70;99.90
10175;DHT22;18221;38.704;0.152;2024-03-07T03:40:49;11.70;99.90
10175;DHT22;18221;38.704;0.152;2024-03-07T03:43:16;11.70;99.90
10175;DHT22;18221;38.704;0.152;2024-03-07T03:45:46;11.70;99.90
10175;DHT22;18221;38.704;0.152;2024-03-07T03:48:14;11.70;99.90
10175;DHT22;18221;38.704;0.152;2024-03-07T03:50:42;11.70;99.90
10175;DHT22;18221;38.704;0.152;2024-03-07T03:53:10;11.60;99.90
10175;DHT22;18221;38.704;0.152;2024-03-07T03:55:38;11.60;99.90
10175;DHT22;18221;38.704;0.152;2024-03-07T03:58:05;11.60;99.90
10175;DHT22;18221;38.704;0.152;2024-03-07T04:00:33;11.50;99.90
10175;DHT22;18221;38.704;0.152;2024-03-07T04:03:03;11.60;99.90
10175;DHT22;18221;38.704;0.152;2024-03-07T04:05:31;11.60;99.90
10175;DHT22;18221;38.704;0.152;2024-03-07T04:07:58;11.60;99.90
10175;DHT22;18221;38.704;0.152;2024-03-07T04:10:26;11.60;99.90
10175;DHT22;18221;38.704;0.152;2024-03-07T04:12:54;11.60;99.90
10175;DHT22;18221;38.704;0.152;2024-03-07T04:15:22;11.60;99.90
10175;DHT22;18221;38.704;0.152;2024-03-07T04:17:52;11.60;99.90
10175;DHT22;18221;38.704;0.152;2024-03-07T04:20:22;11.60;99.90
10175;DHT22;18221;38.704;0.152;2024-03-07T04:22:50;11.60;99.90
10175;DHT22;18221;38.704;0.152;2024-03-07T04:25:18;11.60;99.90
10175;DHT22;18221;38.704;0.152;2024-03-07T04:27:46;11.60;99.90
10175;DHT22;18221;38.704;0.152;2024-03-07T04:30:15;11.70;99.90
10175;DHT22;18221;38.704;0.152;2024-03-07T04:32:43;11.60;99.90
10175;DHT22;18221;38.704;0.152;2024-03-07T04:35:11;11.70;99.90
10175;DHT22;18221;38.704;0.152;2024-03-07T04:37:41;11.70;99.90
10175;DHT22;18221;38.704;0.152;2024-03-07T04:40:10;11.70;99.90
10175;DHT22;18221;38.704;0.152;2024-03-07T04:42:42;11.70;99.90
10175;DHT22;18221;38.704;0.152;2024-03-07T04:45:11;11.60;99.90
10175;DHT22;18221;38.704;0.152;2024-03-07T04:47:40;11.60;99.90
10175;DHT22;18221;38.704;0.152;2024-03-07T04:50:09;11.60;99.90
10175;DHT22;18221;38.704;0.152;2024-03-07T04:52:39;11.60;99.90
10175;DHT22;18221;38.704;0.152;2024-03-07T04:55:08;11.60;99.90
10175;DHT22;18221;38.704;0.152;2024-03-07T04:57:37;11.50;99.90
10175;DHT22;18221;38.704;0.152;2024-03-07T05:00:07;11.50;99.90
10175;DHT22;18221;38.704;0.152;2024-03-07T05:02:39;11.50;99.90
10175;DHT22;18221;38.704;0.152;2024-03-07T05:05:07;11.50;99.90
10175;DHT22;18221;38.704;0.152;2024-03-07T05:07:35;11.60;99.90
10175;DHT22;18221;38.704;0.152;2024-03-07T05:10:07;11.60;99.90
10175;DHT22;18221;38.704;0.152;2024-03-07T05:12:35;11.60;99.90
10175;DHT22;18221;38.704;0.152;2024-03-07T05:15:06;11.50;99.90
10175;DHT22;18221;38.704;0.152;2024-03-07T05:17:36;11.60;99.90
10175;DHT22;18221;38.704;0.152;2024-03-07T05:20:06;11.60;99.90
10175;DHT22;18221;38.704;0.152;2024-03-07T05:22:36;11.60;99.90
10175;DHT22;18221;38.704;0.152;2024-03-07T05:25:08;11.60;99.90
10175;DHT22;18221;38.704;0.152;2024-03-07T05:27:35;11.50;99.90
10175;DHT22;18221;38.704;0.152;2024-03-07T05:30:05;11.50;99.90
10175;DHT22;18221;38.704;0.152;2024-03-07T05:32:37;11.50;99.90
10175;DHT22;18221;38.704;0.152;2024-03-07T05:35:07;11.50;99.90
10175;DHT22;18221;38.704;0.152;2024-03-07T05:37:37;11.50;99.90
10175;DHT22;18221;38.704;0.152;2024-03-07T05:40:10;11.50;99.90
10175;DHT22;18221;38.704;0.152;2024-03-07T05:42:38;11.60;99.90
10175;DHT22;18221;38.704;0.152;2024-03-07T05:45:07;11.60;99.90
10175;DHT22;18221;38.704;0.152;2024-03-07T05:47:36;11.60;99.90
10175;DHT22;18221;38.704;0.152;2024-03-07T05:50:05;11.60;99.90
10175;DHT22;18221;38.704;0.152;2024-03-07T05:52:34;11.60;99.90
10175;DHT22;18221;38.704;0.152;2024-03-07T05:55:02;11.70;99.90
10175;DHT22;18221;38.704;0.152;2024-03-07T05:57:33;11.70;99.90
10175;DHT22;18221;38.704;0.152;2024-03-07T06:00:01;11.70;99.90
10175;DHT22;18221;38.704;0.152;2024-03-07T06:02:35;11.70;99.90
10175;DHT22;18221;38.704;0.152;2024-03-07T06:05:03;11.70;99.90
10175;DHT22;18221;38.704;0.152;2024-03-07T06:07:35;11.60;99.90
10175;DHT22;18221;38.704;0.152;2024-03-07T06:10:04;11.60;99.90
10175;DHT22;18221;38.704;0.152;2024-03-07T06:12:38;11.60;99.90
10175;DHT22;18221;38.704;0.152;2024-03-07T06:15:11;11.60;99.90
10175;DHT22;18221;38.704;0.152;2024-03-07T06:17:39;11.60;99.90
10175;DHT22;18221;38.704;0.152;2024-03-07T06:20:08;11.60;99.90
10175;DHT22;18221;38.704;0.152;2024-03-07T06:22:48;11.60;99.90
10175;DHT22;18221;38.704;0.152;2024-03-07T06:25:19;11.60;99.90
10175;DHT22;18221;38.704;0.152;2024-03-07T06:28:01;11.60;99.90
10175;DHT22;18221;38.704;0.152;2024-03-07T06:30:35;11.50;99.90
10175;DHT22;18221;38.704;0.152;2024-03-07T06:33:04;11.50;99.90
10175;DHT22;18221;38.704;0.152;2024-03-07T06:35:32;11.60;99.90
10175;DHT22;18221;38.704;0.152;2024-03-07T06:38:03;11.50;99.90
10175;DHT22;18221;38.704;0.152;2024-03-07T06:40:31;11.50;99.90
10175;DHT22;18221;38.704;0.152;2024-03-07T06:43:01;11.50;99.90
10175;DHT22;18221;38.704;0.152;2024-03-07T06:45:29;11.40;99.90
10175;DHT22;18221;38.704;0.152;2024-03-07T06:47:57;11.50;99.90
10175;DHT22;18221;38.704;0.152;2024-03-07T06:50:25;11.50;99.90
10175;DHT22;18221;38.704;0.152;2024-03-07T06:52:55;11.40;99.90
10175;DHT22;18221;38.704;0.152;2024-03-07T06:55:23;11.40;99.90
10175;DHT22;18221;38.704;0.152;2024-03-07T06:57:50;11.40;99.90
10175;DHT22;18221;38.704;0.152;2024-03-07T07:00:21;11.50;99.90
10175;DHT22;18221;38.704;0.152;2024-03-07T07:02:49;11.40;99.90
10175;DHT22;18221;38.704;0.152;2024-03-07T07:05:19;11.50;99.90
10175;DHT22;18221;38.704;0.152;2024-03-07T07:07:47;11.40;99.90
10175;DHT22;18221;38.704;0.152;2024-03-07T07:10:15;11.40;99.90
10175;DHT22;18221;38.704;0.152;2024-03-07T07:12:44;11.40;99.90
10175;DHT22;18221;38.704;0.152;2024-03-07T07:15:14;11.50;99.90
10175;DHT22;18221;38.704;0.152;2024-03-07T07:17:45;11.50;99.90
10175;DHT22;18221;38.704;0.152;2024-03-07T07:20:15;11.50;99.90
10175;DHT22;18221;38.704;0.152;2024-03-07T07:22:45;11.60;99.90
10175;DHT22;18221;38.704;0.152;2024-03-07T07:25:15;11.50;99.90
10175;DHT22;18221;38.704;0.152;2024-03-07T07:27:45;11.50;99.90
10175;DHT22;18221;38.704;0.152;2024-03-07T07:30:16;11.50;99.90
10175;DHT22;18221;38.704;0.152;2024-03-07T07:32:46;11.60;99.90
10175;DHT22;18221;38.704;0.152;2024-03-07T07:35:15;11.60;99.90
10175;DHT22;18221;38.704;0.152;2024-03-07T07:37:46;11.60;99.90
10175;DHT22;18221;38.704;0.152;2024-03-07T07:40:16;11.60;99.90
10175;DHT22;18221;38.704;0.152;2024-03-07T07:42:45;11.50;99.90
10175;DHT22;18221;38.704;0.152;2024-03-07T07:45:15;11.40;99.90
10175;DHT22;18221;38.704;0.152;2024-03-07T07:47:43;11.40;99.90
10175;DHT22;18221;38.704;0.152;2024-03-07T07:50:15;11.40;99.90
10175;DHT22;18221;38.704;0.152;2024-03-07T07:52:46;11.40;99.90
10175;DHT22;18221;38.704;0.152;2024-03-07T07:55:16;11.30;99.90
10175;DHT22;18221;38.704;0.152;2024-03-07T07:57:46;11.40;99.90
10175;DHT22;18221;38.704;0.152;2024-03-07T08:00:18;11.40;99.90
10175;DHT22;18221;38.704;0.152;2024-03-07T08:02:53;11.40;99.90
10175;DHT22;18221;38.704;0.152;2024-03-07T08:05:22;11.40;99.90
10175;DHT22;18221;38.704;0.152;2024-03-07T08:07:54;11.40;99.90
10175;DHT22;18221;38.704;0.152;2024-03-07T08:10:24;11.40;99.90
10175;DHT22;18221;38.704;0.152;2024-03-07T08:12:54;11.40;99.90
10175;DHT22;18221;38.704;0.152;2024-03-07T08:15:23;11.40;99.90
10175;DHT22;18221;38.704;0.152;2024-03-07T08:17:56;11.50;99.90
10175;DHT22;18221;38.704;0.152;2024-03-07T08:20:26;11.50;99.90
10175;DHT22;18221;38.704;0.152;2024-03-07T08:22:55;11.50;99.90
10175;DHT22;18221;38.704;0.152;2024-03-07T08:25:24;11.40;99.90
10175;DHT22;18221;38.704;0.152;2024-03-07T08:27:56;11.50;99.90
10175;DHT22;18221;38.704;0.152;2024-03-07T08:30:25;11.50;99.90
10175;DHT22;18221;38.704;0.152;2024-03-07T08:32:56;11.60;99.90
10175;DHT22;18221;38.704;0.152;2024-03-07T08:35:28;11.60;99.90
10175;DHT22;18221;38.704;0.152;2024-03-07T08:37:58;11.60;99.90
10175;DHT22;18221;38.704;0.152;2024-03-07T08:40:27;11.70;99.90
10175;DHT22;18221;38.704;0.152;2024-03-07T08:42:58;11.70;99.90
10175;DHT22;18221;38.704;0.152;2024-03-07T08:45:27;11.80;99.90
10175;DHT22;18221;38.704;0.152;2024-03-07T08:48:00;11.80;99.90
10175;DHT22;18221;38.704;0.152;2024-03-07T08:50:29;11.80;99.90
10175;DHT22;18221;38.704;0.152;2024-03-07T08:52:59;11.90;99.90
10175;DHT22;18221;38.704;0.152;2024-03-07T08:55:27;11.90;99.90
10175;DHT22;18221;38.704;0.152;2024-03-07T08:57:56;11.90;99.90
10175;DHT22;18221;38.704;0.152;2024-03-07T09:00:27;12.00;99.90
10175;DHT22;18221;38.704;0.152;2024-03-07T09:02:55;12.00;99.90
10175;DHT22;18221;38.704;0.152;2024-03-07T09:05:26;12.10;99.90
10175;DHT22;18221;38.704;0.152;2024-03-07T09:07:54;12.20;99.90
10175;DHT22;18221;38.704;0.152;2024-03-07T09:10:22;12.20;99.90
10175;DHT22;18221;38.704;0.152;2024-03-07T09:12:51;12.30;99.90
10175;DHT22;18221;38.704;0.152;2024-03-07T09:15:20;12.40;99.90
10175;DHT22;18221;38.704;0.152;2024-03-07T09:17:48;12.50;99.90
10175;DHT22;18221;38.704;0.152;2024-03-07T09:20:15;12.60;99.90
10175;DHT22;18221;38.704;0.152;2024-03-07T09:22:46;12.60;99.90
10175;DHT22;18221;38.704;0.152;2024-03-07T09:25:16;12.70;99.90
10175;DHT22;18221;38.704;0.152;2024-03-07T09:27:44;12.80;99.90
10175;DHT22;18221;38.704;0.152;2024-03-07T09:30:12;12.90;99.90
10175;DHT22;18221;38.704;0.152;2024-03-07T09:32:42;13.00;99.90
10175;DHT22;18221;38.704;0.152;2024-03-07T09:35:11;13.10;99.90
10175;DHT22;18221;38.704;0.152;2024-03-07T09:37:40;13.30;99.90
10175;DHT22;18221;38.704;0.152;2024-03-07T09:40:10;13.50;99.90
10175;DHT22;18221;38.704;0.152;2024-03-07T09:42:43;13.80;99.90
10175;DHT22;18221;38.704;0.152;2024-03-07T09:45:15;14.10;99.90
10175;DHT22;18221;38.704;0.152;2024-03-07T09:47:45;14.40;99.90
10175;DHT22;18221;38.704;0.152;2024-03-07T09:50:16;14.50;99.90
10175;DHT22;18221;38.704;0.152;2024-03-07T09:52:51;14.70;99.90
10175;DHT22;18221;38.704;0.152;2024-03-07T09:55:22;14.70;99.90
10175;DHT22;18221;38.704;0.152;2024-03-07T09:57:50;14.60;99.90
10175;DHT22;18221;38.704;0.152;2024-03-07T10:00:19;14.60;99.90
10175;DHT22;18221;38.704;0.152;2024-03-07T10:02:54;14.50;99.90
10175;DHT22;18221;38.704;0.152;2024-03-07T10:05:27;14.40;99.90
10175;DHT22;18221;38.704;0.152;2024-03-07T10:07:55;14.20;99.90
10175;DHT22;18221;38.704;0.152;2024-03-07T10:10:25;14.10;99.90
10175;DHT22;18221;38.704;0.152;2024-03-07T10:12:53;14.10;99.90
10175;DHT22;18221;38.704;0.152;2024-03-07T10:15:27;14.20;99.90
10175;DHT22;18221;38.704;0.152;2024-03-07T10:17:56;14.20;99.90
10175;DHT22;18221;38.704;0.152;2024-03-07T10:20:24;14.30;99.90
10175;DHT22;18221;38.704;0.152;2024-03-07T10:22:53;14.20;99.90
10175;DHT22;18221;38.704;0.152;2024-03-07T10:25:21;14.40;99.90
10175;DHT22;18221;38.704;0.152;2024-03-07T10:27:52;14.40;99.90
10175;DHT22;18221;38.704;0.152;2024-03-07T10:30:21;14.30;99.90
10175;DHT22;18221;38.704;0.152;2024-03-07T10:32:52;14.40;99.90
10175;DHT22;18221;38.704;0.152;2024-03-07T10:35:22;14.30;99.90
10175;DHT22;18221;38.704;0.152;2024-03-07T10:37:52;14.40;99.90
10175;DHT22;18221;38.704;0.152;2024-03-07T10:40:21;14.40;99.90
10175;DHT22;18221;38.704;0.152;2024-03-07T10:42:49;14.40;99.90
10175;DHT22;18221;38.704;0.152;2024-03-07T10:45:21;14.40;99.90
10175;DHT22;18221;38.704;0.152;2024-03-07T10:47:53;14.50;99.90
10175;DHT22;18221;38.704;0.152;2024-03-07T10:50:30;14.50;99.90
10175;DHT22;18221;38.704;0.152;2024-03-07T10:53:13;14.50;99.90
10175;DHT22;18221;38.704;0.152;2024-03-07T10:55:58;14.60;99.90
10175;DHT22;18221;38.704;0.152;2024-03-07T10:58:52;14.60;99.90
10175;DHT22;18221;38.704;0.152;2024-03-07T11:01:30;14.60;99.90
10175;DHT22;18221;38.704;0.152;2024-03-07T11:04:00;14.70;99.90
10175;DHT22;18221;38.704;0.152;2024-03-07T11:06:32;14.70;99.90
10175;DHT22;18221;38.704;0.152;2024-03-07T11:09:03;14.60;99.90
10175;DHT22;18221;38.704;0.152;2024-03-07T11:11:38;14.80;99.90
10175;DHT22;18221;38.704;0.152;2024-03-07T11:14:08;14.90;99.90
10175;DHT22;18221;38.704;0.152;2024-03-07T11:16:41;14.90;99.90
10175;DHT22;18221;38.704;0.152;2024-03-07T11:19:20;14.90;99.90
10175;DHT22;18221;38.704;0.152;2024-03-07T11:21:53;14.80;99.90
10175;DHT22;18221;38.704;0.152;2024-03-07T11:24:26;14.80;99.90
10175;DHT22;18221;38.704;0.152;2024-03-07T11:26:57;15.00;99.90
10175;DHT22;18221;38.704;0.152;2024-03-07T11:29:47;15.00;99.90
10175;DHT22;18221;38.704;0.152;2024-03-07T11:32:22;15.00;99.90
10175;DHT22;18221;38.704;0.152;2024-03-07T11:34:50;15.10;99.90
10175;DHT22;18221;38.704;0.152;2024-03-07T11:37:37;15.20;99.90
10175;DHT22;18221;38.704;0.152;2024-03-07T11:40:12;15.20;99.90
10175;DHT22;18221;38.704;0.152;2024-03-07T11:42:47;15.20;99.90
10175;DHT22;18221;38.704;0.152;2024-03-07T11:45:18;15.20;99.90
10175;DHT22;18221;38.704;0.152;2024-03-07T11:47:54;15.20;99.90
10175;DHT22;18221;38.704;0.152;2024-03-07T11:50:26;15.10;99.90
10175;DHT22;18221;38.704;0.152;2024-03-07T11:52:54;15.20;99.90
10175;DHT22;18221;38.704;0.152;2024-03-07T11:55:23;15.40;99.90
10175;DHT22;18221;38.704;0.152;2024-03-07T11:57:51;15.30;99.90
10175;DHT22;18221;38.704;0.152;2024-03-07T12:00:19;15.40;99.90
10175;DHT22;18221;38.704;0.152;2024-03-07T12:02:49;15.50;99.90
10175;DHT22;18221;38.704;0.152;2024-03-07T12:05:19;15.40;99.90
10175;DHT22;18221;38.704;0.152;2024-03-07T12:07:47;15.60;99.90
10175;DHT22;18221;38.704;0.152;2024-03-07T12:10:15;15.70;99.90
10175;DHT22;18221;38.704;0.152;2024-03-07T12:12:50;15.70;99.90
10175;DHT22;18221;38.704;0.152;2024-03-07T12:15:18;15.60;99.90
10175;DHT22;18221;38.704;0.152;2024-03-07T12:17:47;15.60;99.90
10175;DHT22;18221;38.704;0.152;2024-03-07T12:20:18;15.80;99.90
10175;DHT22;18221;38.704;0.152;2024-03-07T12:22:58;15.80;99.90
10175;DHT22;18221;38.704;0.152;2024-03-07T12:25:28;15.80;99.90
10175;DHT22;18221;38.704;0.152;2024-03-07T15:16:23;20.10;99.90
10175;DHT22;18221;38.704;0.152;2024-03-07T15:18:51;16.50;99.90
10175;DHT22;18221;38.704;0.152;2024-03-07T15:21:19;16.50;99.90
10175;DHT22;18221;38.704;0.152;2024-03-07T15:23:47;16.60;99.90
10175;DHT22;18221;38.704;0.152;2024-03-07T15:26:18;16.50;99.90
10175;DHT22;18221;38.704;0.152;2024-03-07T15:28:49;16.40;99.90
10175;DHT22;18221;38.704;0.152;2024-03-07T15:31:19;16.30;99.90
10175;DHT22;18221;38.704;0.152;2024-03-07T15:33:49;16.40;99.90
10175;DHT22;18221;38.704;0.152;2024-03-07T15:36:18;16.20;99.90
10175;DHT22;18221;38.704;0.152;2024-03-07T15:38:47;16.00;99.90
10175;DHT22;18221;38.704;0.152;2024-03-07T15:41:15;15.90;99.90
10175;DHT22;18221;38.704;0.152;2024-03-07T15:43:44;15.80;99.90
10175;DHT22;18221;38.704;0.152;2024-03-07T15:46:12;15.80;99.90
10175;DHT22;18221;38.704;0.152;2024-03-07T15:48:44;15.90;99.90
10175;DHT22;18221;38.704;0.152;2024-03-07T15:51:15;15.80;99.90
10175;DHT22;18221;38.704;0.152;2024-03-07T15:53:44;15.80;99.90
10175;DHT22;18221;38.704;0.152;2024-03-07T15:56:13;15.80;99.90
10175;DHT22;18221;38.704;0.152;2024-03-07T15:58:41;15.90;99.90
10175;DHT22;18221;38.704;0.152;2024-03-07T16:01:09;15.90;99.90
10175;DHT22;18221;38.704;0.152;2024-03-07T16:03:37;15.80;99.90
10175;DHT22;18221;38.704;0.152;2024-03-07T16:06:05;15.80;99.90
10175;DHT22;18221;38.704;0.152;2024-03-07T16:08:34;15.70;99.90
10175;DHT22;18221;38.704;0.152;2024-03-07T16:11:02;15.70;99.90
10175;DHT22;18221;38.704;0.152;2024-03-07T16:13:30;15.70;99.90
10175;DHT22;18221;38.704;0.152;2024-03-07T16:15:59;15.70;99.90
10175;DHT22;18221;38.704;0.152;2024-03-07T16:18:30;15.70;99.90
10175;DHT22;18221;38.704;0.152;2024-03-07T16:20:58;15.70;99.90
10175;DHT22;18221;38.704;0.152;2024-03-07T16:23:26;15.60;99.90
10175;DHT22;18221;38.704;0.152;2024-03-07T16:25:55;15.60;99.90
10175;DHT22;18221;38.704;0.152;2024-03-07T16:28:30;15.60;99.90
10175;DHT22;18221;38.704;0.152;2024-03-07T16:30:58;15.50;99.90
10175;DHT22;18221;38.704;0.152;2024-03-07T16:33:27;15.50;99.90
10175;DHT22;18221;38.704;0.152;2024-03-07T16:35:55;15.40;99.90
10175;DHT22;18221;38.704;0.152;2024-03-07T16:38:23;15.40;99.90
10175;DHT22;18221;38.704;0.152;2024-03-07T16:40:51;15.40;99.90
10175;DHT22;18221;38.704;0.152;2024-03-07T16:43:20;15.40;99.90
10175;DHT22;18221;38.704;0.152;2024-03-07T16:45:50;15.40;99.90
10175;DHT22;18221;38.704;0.152;2024-03-07T16:48:19;15.30;99.90
10175;DHT22;18221;38.704;0.152;2024-03-07T16:50:46;15.20;99.90
10175;DHT22;18221;38.704;0.152;2024-03-07T16:53:14;15.20;99.90
10175;DHT22;18221;38.704;0.152;2024-03-07T16:55:43;15.20;99.90
10175;DHT22;18221;38.704;0.152;2024-03-07T16:58:11;15.10;99.90
10175;DHT22;18221;38.704;0.152;2024-03-07T17:00:40;15.10;99.90
10175;DHT22;18221;38.704;0.152;2024-03-07T17:03:09;15.10;99.90
10175;DHT22;18221;38.704;0.152;2024-03-07T17:05:39;15.00;99.90
10175;DHT22;18221;38.704;0.152;2024-03-07T17:08:09;15.00;99.90
10175;DHT22;18221;38.704;0.152;2024-03-07T17:10:39;15.00;99.90
10175;DHT22;18221;38.704;0.152;2024-03-07T17:13:08;15.00;99.90
10175;DHT22;18221;38.704;0.152;2024-03-07T17:15:37;14.90;99.90
10175;DHT22;18221;38.704;0.152;2024-03-07T17:18:08;14.90;99.90
10175;DHT22;18221;38.704;0.152;2024-03-07T17:20:36;14.80;99.90
10175;DHT22;18221;38.704;0.152;2024-03-07T17:23:05;14.70;99.90
10175;DHT22;18221;38.704;0.152;2024-03-07T17:25:33;14.80;99.90
10175;DHT22;18221;38.704;0.152;2024-03-07T17:28:01;14.80;99.90
10175;DHT22;18221;38.704;0.152;2024-03-07T17:30:29;14.70;99.90
10175;DHT22;18221;38.704;0.152;2024-03-07T17:32:59;14.80;99.90
10175;DHT22;18221;38.704;0.152;2024-03-07T17:35:27;14.80;99.90
10175;DHT22;18221;38.704;0.152;2024-03-07T17:37:55;14.70;99.90
10175;DHT22;18221;38.704;0.152;2024-03-07T17:40:22;14.70;99.90
10175;DHT22;18221;38.704;0.152;2024-03-07T17:42:53;14.70;99.90
10175;DHT22;18221;38.704;0.152;2024-03-07T17:45:23;14.70;99.90
10175;DHT22;18221;38.704;0.152;2024-03-07T17:47:56;14.70;99.90
10175;DHT22;18221;38.704;0.152;2024-03-07T17:50:26;14.70;99.90
10175;DHT22;18221;38.704;0.152;2024-03-07T17:52:58;14.70;99.90
10175;DHT22;18221;38.704;0.152;2024-03-07T17:55:33;14.60;99.90
10175;DHT22;18221;38.704;0.152;2024-03-07T17:58:02;14.70;99.90
10175;DHT22;18221;38.704;0.152;2024-03-07T18:00:31;14.70;99.90
10175;DHT22;18221;38.704;0.152;2024-03-07T18:03:04;14.70;99.90
10175;DHT22;18221;38.704;0.152;2024-03-07T18:05:35;14.70;99.90
10175;DHT22;18221;38.704;0.152;2024-03-07T18:08:08;14.60;99.90
10175;DHT22;18221;38.704;0.152;2024-03-07T18:10:43;14.60;99.90
10175;DHT22;18221;38.704;0.152;2024-03-07T18:13:13;14.60;99.90
10175;DHT22;18221;38.704;0.152;2024-03-07T18:15:44;14.60;99.90
10175;DHT22;18221;38.704;0.152;2024-03-07T18:18:16;14.50;99.90
10175;DHT22;18221;38.704;0.152;2024-03-07T18:20:44;14.60;99.90
10175;DHT22;18221;38.704;0.152;2024-03-07T18:23:12;14.60;99.90
10175;DHT22;18221;38.704;0.152;2024-03-07T18:25:41;14.60;99.90
10175;DHT22;18221;38.704;0.152;2024-03-07T18:28:09;14.60;99.90
10175;DHT22;18221;38.704;0.152;2024-03-07T18:30:39;14.50;99.90
10175;DHT22;18221;38.704;0.152;2024-03-07T18:33:09;14.50;99.90
10175;DHT22;18221;38.704;0.152;2024-03-07T18:35:40;14.50;99.90
10175;DHT22;18221;38.704;0.152;2024-03-07T18:38:11;14.40;99.90
10175;DHT22;18221;38.704;0.152;2024-03-07T18:40:39;14.50;99.90
10175;DHT22;18221;38.704;0.152;2024-03-07T18:43:07;14.50;99.90
10175;DHT22;18221;38.704;0.152;2024-03-07T18:45:37;14.50;99.90
10175;DHT22;18221;38.704;0.152;2024-03-07T18:48:09;14.50;99.90
10175;DHT22;18221;38.704;0.152;2024-03-07T18:50:39;14.50;99.90
10175;DHT22;18221;38.704;0.152;2024-03-07T18:53:11;14.40;99.90
10175;DHT22;18221;38.704;0.152;2024-03-07T18:55:40;14.40;99.90